Pagrindinis puslapis
METAR-TAF:

METAR-TAF

Oro uostai :

Brunėjus, Brunėjus

platuma: 04-56N, ilguma: 114-56E, Aukštis: 22 m

Dabartinis oras

Ataskaita buvo paskelbta 23 minutes, ne 13:00 UTC
Vėjas 3 kt iš Vakarų/Pietvakarių
Temperatūra 27°C
Drėgmė 79%
Slėgis 1008 hPa
Matomumas 10 km arba daugiau
Išsisklaidę debesys ne aukštis 1500 ft
Išsisklaidę debesys ne aukštis 14000 ft
Su prošvaistėmis ne aukštis 30000 ft

METAR: WBSB 251300Z 24003KT 9999 SCT015 SCT140 BKN300 27/23 Q1008 NOSIG

Laikas: 21:23 (13:23 UTC)

Prognozė

Ataskaita buvo paskelbta 2 valandos ir 23 minutes, ne 11:00 UTC
Prognozė galioja nuo 25 metu 12 UTC su 26 metu 18 UTC
Vėjas 3 kt iš Pietų/Pietvakarių
Matomumas 10 km arba daugiau
Mažai debesys ne aukštis 1500 ft
Tapsmas
nuo 26 metu 02 UTC su 26 metu 04 UTC
Vėjas 10 kt iš Šiaurės Vakarų
Mažai debesys ne aukštis 1600 ft
Mažai debesys ne aukštis 1700 ft, Liūtiniai kamuoliniai debesys.

TAF: WBSB 251100Z 2512/2618 21003KT 9999 FEW015 BECMG 2602/2604 31010KT FEW016 FEW017CB

Orai ataskaitas ir orų prognozės (METAR, TAF).

turimą stotys yra geltonos ir raudonos taškus žemėlapyje.

Perkelti pele per norėdami pamatyti stoties vardą.

Tada spustelėkite, norėdami matyti oro stebėjimo ir prognozės.

Norėdami pakeisti žemėlapį: spustelėkite ant žalios mygtukų su juodo kryžiaus žemyn,; žalią mygtuką su brūkšneliu, jei norite nutolinti; arba žalių rodyklių gretimoms žemėlapius.


METAR-TAF: